createdAt,value
2023-05-10T00:01:17.233Z,5.67
2023-05-10T00:16:18.727Z,5.43
2023-05-10T00:31:20.213Z,5.83
2023-05-10T00:46:21.763Z,6.57
2023-05-10T01:01:23.309Z,4.53
2023-05-10T01:16:24.928Z,4.83
2023-05-10T01:31:26.441Z,4.13
2023-05-10T01:46:28.007Z,5.50
2023-05-10T02:01:29.487Z,4.20
2023-05-10T02:16:30.986Z,4.93
2023-05-10T02:31:32.488Z,3.67
2023-05-10T02:46:34.067Z,5.43
2023-05-10T03:01:35.692Z,4.03
2023-05-10T03:16:37.171Z,3.73
2023-05-10T03:31:38.669Z,4.53
2023-05-10T03:46:40.168Z,4.53
2023-05-10T04:01:41.677Z,4.47
2023-05-10T04:16:43.193Z,5.60
2023-05-10T04:31:44.687Z,4.23
2023-05-10T04:46:46.205Z,4.53
2023-05-10T05:01:47.726Z,4.30
2023-05-10T05:16:49.226Z,5.20
2023-05-10T05:31:51.044Z,5.40
2023-05-10T05:46:53.374Z,6.40
2023-05-10T06:01:54.880Z,4.80
2023-05-10T06:16:56.599Z,5.07
2023-05-10T06:31:58.213Z,7.87
2023-05-10T06:46:59.751Z,5.90
2023-05-10T07:02:01.261Z,8.40
2023-05-10T07:17:02.768Z,7.83
2023-05-10T07:32:04.283Z,6.70
2023-05-10T07:47:05.854Z,8.03
2023-05-10T08:02:07.405Z,9.37
2023-05-10T08:17:08.920Z,8.70
2023-05-10T08:32:10.412Z,10.33
2023-05-10T08:47:11.921Z,9.60
2023-05-10T09:02:13.452Z,8.47
2023-05-10T09:17:14.978Z,7.13
2023-05-10T09:32:16.456Z,8.47
2023-05-10T09:47:17.924Z,7.17
2023-05-10T10:02:19.396Z,7.13
2023-05-10T10:17:20.929Z,9.97
2023-05-10T10:32:22.441Z,8.20
2023-05-10T10:47:24.026Z,7.70
2023-05-10T11:02:25.655Z,6.17
2023-05-10T11:17:27.175Z,6.17
2023-05-10T11:32:28.700Z,6.70
2023-05-10T11:47:30.264Z,6.23
2023-05-10T12:02:31.824Z,5.40
2023-05-10T12:17:33.345Z,4.63
2023-05-10T12:32:34.837Z,5.60
2023-05-10T12:47:36.299Z,5.53
2023-05-10T13:02:37.777Z,4.80
2023-05-10T13:17:39.255Z,4.60
2023-05-10T13:32:40.750Z,5.10
2023-05-10T13:47:42.220Z,4.47
2023-05-10T14:02:43.742Z,4.57
2023-05-10T14:17:45.305Z,4.23
2023-05-10T14:32:46.728Z,5.30
2023-05-10T14:47:48.191Z,4.23
2023-05-10T15:02:49.757Z,3.40
2023-05-10T15:17:51.838Z,4.10
2023-05-10T15:32:53.316Z,5.70
2023-05-10T15:47:54.776Z,3.90
2023-05-10T16:02:56.425Z,3.80
2023-05-10T16:17:58.305Z,3.90
2023-05-10T16:33:00.046Z,9.47
2023-05-10T16:48:01.605Z,9.77
2023-05-10T17:03:03.238Z,7.43
2023-05-10T17:18:04.808Z,6.80
2023-05-10T17:33:06.372Z,5.73
2023-05-10T17:48:07.997Z,5.27
2023-05-10T18:03:09.625Z,6.00
2023-05-10T18:18:11.189Z,5.53
2023-05-10T18:33:12.770Z,4.20
2023-05-10T18:48:14.284Z,3.97
2023-05-10T19:03:15.749Z,4.37
2023-05-10T19:18:17.242Z,3.40
2023-05-10T19:33:18.739Z,3.80
2023-05-10T19:48:20.192Z,4.33
2023-05-10T20:03:21.690Z,3.53
2023-05-10T20:18:23.270Z,3.53
2023-05-10T20:33:24.832Z,4.07
2023-05-10T20:48:26.288Z,3.53
2023-05-10T21:03:27.754Z,4.53
2023-05-10T21:18:29.271Z,4.73
2023-05-10T21:33:30.854Z,2.53
2023-05-10T21:48:32.329Z,3.00
2023-05-10T22:03:33.854Z,2.93
2023-05-10T22:18:36.446Z,3.27
2023-05-10T22:33:37.927Z,3.30
2023-05-10T22:48:39.412Z,3.60
2023-05-10T23:03:40.870Z,3.90
2023-05-10T23:18:42.394Z,3.23
2023-05-10T23:33:43.871Z,2.80
2023-05-10T23:48:45.342Z,3.50
